Terminal Aerodrome Forecast
Issued by NWS Jacksonville, FL

Home | Current Version | Previous Version | Text Only | Print | Product List | Glossary On
Versions: 1 2 3 4 5 6 7 8 9 10 11 12 13 14 15
000
FTUS42 KJAX 241120
TAFGNV
TAF
KGNV 241120Z 2412/2512 07005KT P6SM BKN035
     FM241400 08010KT P6SM SCT035
     FM241600 09012G18KT P6SM VCSH SCT025 BKN035
     FM242300 10008KT P6SM SCT035=

USA.gov is the U.S. government's official web portal to all federal, state and local government web resources and services.